Flight Track Log - Related Links

Times and Time Zones

All times are in EDT time to prevent confusion due to time zone crossing. See the F-GITD flight status page for this flight to view local times or setup timezone preferences in your user account.

Time Position Orientation Groundspeed Altitude Reporting Facility
EDT Latitude Longitude Course Direction KTS MPH feet Rate Location/Type
Fri 05:02:00 AM 49.0562 2.3888 292° West  Level FlightAware Approximate
Fri 05:03:00 AM 49.0959 2.2184 289° West  Level FlightAware Approximate
Fri 05:04:00 AM 49.1493 2.0644 299° West  Level FlightAware Approximate
Fri 05:05:00 AM 49.2001 1.9081 294° West  Level FlightAware Approximate
Fri 05:06:00 AM 49.2459 1.7478 294° West  Level FlightAware Approximate
Fri 05:07:00 AM 49.2928 1.5882 294° West  Level FlightAware Approximate
Fri 05:08:00 AM 49.3393 1.4281 293° West  Level FlightAware Approximate
Fri 05:09:00 AM 49.3834 1.2663 299° West  Level FlightAware Approximate
Fri 05:10:00 AM 49.4392 1.1131 299° West  Level FlightAware Approximate
Fri 05:11:00 AM 49.4850 0.9523 292° West  Level FlightAware Approximate
Fri 05:11:14 AM 49.0213 2.5229 292° West 167 192 300  Level FlightAware ADS-B
Fri 05:11:20 AM 49.0210 2.5163 266° West 162 186 500 2,000 Climbing FlightAware ADS-B
Fri 05:11:26 AM 49.0206 2.5094 265° West 165 190 700 2,000 Climbing FlightAware ADS-B
Fri 05:11:35 AM 49.0201 2.4987 266° West 169 194 1,000 1,800 Climbing FlightAware ADS-B
Fri 05:11:46 AM 49.0193 2.4863 264° West 167 192 1,300 1,920 Climbing FlightAware ADS-B
Fri 05:12:00 AM 49.0185 2.4692 266° West 171 197 1,800 2,286 Climbing FlightAware ADS-B
Fri 05:12:07 AM 49.0181 2.4611 266° West 171 197 2,100 2,400 Climbing FlightAware ADS-B
Fri 05:12:15 AM 49.0174 2.4513 264° West 174 200 2,400 2,143 Climbing FlightAware ADS-B
Fri 05:12:21 AM 49.0168 2.4437 263° West 173 199 2,600 2,625 Climbing FlightAware ADS-B
Fri 05:12:31 AM 49.0161 2.4317 265° West 172 198 3,100 2,526 Climbing FlightAware ADS-B
Fri 05:12:40 AM 49.0155 2.4211 265° West 174 200 3,400 1,500 Climbing FlightAware ADS-B
Fri 05:12:51 AM 49.0150 2.4068 267° West 193 222 3,600 1,333 Climbing FlightAware ADS-B
Fri 05:12:58 AM 49.0145 2.3966 266° West 201 231 3,800 1,364 Climbing FlightAware ADS-B
Fri 05:13:13 AM 49.0134 2.3747 266° West 222 255 4,100 1,071 Climbing FlightAware ADS-B
Fri 05:13:26 AM 49.0123 2.3535 265° West 239 275 4,300 1,263 Climbing FlightAware ADS-B
Fri 05:13:32 AM 49.0120 2.3438 267° West 245 282 4,500 1,800 Climbing FlightAware ADS-B
Fri 05:13:36 AM 49.0124 2.3365 275° West 251 289 4,600 1,333 Climbing FlightAware ADS-B
Fri 05:13:41 AM 49.0136 2.3282 283° West 257 296 4,700 1,500 Climbing FlightAware ADS-B
Fri 05:13:44 AM 49.0149 2.3233 292° West 260 299 4,800 3,000 Climbing FlightAware ADS-B
Fri 05:13:47 AM 49.0167 2.3178 296° West 262 302 5,000 3,273 Climbing FlightAware ADS-B
Fri 05:13:55 AM 49.0216 2.3047 300° West 262 302 5,400 3,231 Climbing FlightAware ADS-B
Fri 05:14:00 AM 49.0241 2.2966 295° West 264 304 5,700 3,818 Climbing FlightAware ADS-B
Fri 05:14:06 AM 49.0265 2.2853 288° West 266 306 6,100 3,600 Climbing FlightAware ADS-B
Fri 05:14:15 AM 49.0290 2.2690 283° West 268 308 6,600 3,429 Climbing FlightAware ADS-B
Fri 05:14:20 AM 49.0302 2.2596 281° West 269 310 6,900 3,474 Climbing FlightAware ADS-B
Fri 05:14:34 AM 49.0329 2.2344 279° West 272 313 7,700 3,517 Climbing FlightAware ADS-B
Fri 05:14:49 AM 49.0352 2.2059 277° West 275 316 8,600 3,447 Climbing FlightAware ADS-B
Fri 05:15:21 AM 49.0389 2.1438 275° West 275 316 10,400 2,204 Climbing FlightAware ADS-B
Fri 05:16:27 AM 49.0470 2.0010 275° West 356 410 12,200 1,811 Climbing FlightAware ADS-B
Fri 05:17:07 AM 49.0520 1.8970 274° West 385 443 13,600 750 Climbing FlightAware ADS-B
Fri 05:17:23 AM 49.0538 1.8488 274° West 414 476 12,900 750 Descending FlightAware UK
Fri 05:17:47 AM 49.0578 1.7823 275° West 416 479 14,100 5,586 Climbing FlightAware UK
Fri 05:17:52 AM 49.0570 1.7800 275° West 400 460 15,600 2,870 Climbing FlightAware ADS-B
Fri 05:18:10 AM 49.0596 1.7127 275° West 428 493 15,200 2,850 Descending FlightAware UK
Fri 05:18:32 AM 49.0600 1.6650 275° West 413 475 17,500 4,065 Climbing FlightAware ADS-B
Fri 05:19:12 AM 49.0620 1.5480 272° West 419 482 19,400 2,753 Climbing FlightAware ADS-B
Fri 05:19:57 AM 49.0640 1.4140 271° West 426 490 21,400 1,500 Climbing FlightAware ADS-B
Fri 05:20:16 AM 49.0649 1.3404 271° West 470 541 21,000 324 Descending FlightAware UK
Fri 05:20:34 AM 49.0661 1.2861 272° West 474 545 21,600 5,077 Climbing FlightAware UK
Fri 05:20:42 AM 49.0670 1.2790 272° West 433 498 23,200 2,250 Climbing FlightAware ADS-B
Fri 05:20:58 AM 49.0676 1.2134 272° West 478 550 22,500 2,400 Descending FlightAware UK
Fri 05:21:22 AM 49.0690 1.1480 272° West 443 510 24,800 1,917 Climbing FlightAware ADS-B
Fri 05:22:10 AM 49.0715 0.9869 272° West 496 571 24,800 1,636 Level FlightAware UK
Fri 05:22:17 AM 49.0710 0.9900 272° West 455 524 26,300 1,800 Climbing FlightAware ADS-B
Fri 05:22:40 AM 49.0729 0.8900 272° West 504 580 25,700 2,100 Descending FlightAware UK
Fri 05:22:57 AM 49.0740 0.8490 271° West 463 533 27,700 2,000 Climbing FlightAware ADS-B
Fri 05:22:58 AM 49.0737 0.8311 271° West 504 580 26,300 -1,895 Descending FlightAware UK
Fri 05:23:16 AM 49.0743 0.7732 271° West 498 573 27,100 5,077 Climbing FlightAware UK
Fri 05:23:37 AM 49.0750 0.7410 271° West 452 520 29,600 2,833 Climbing FlightAware ADS-B
Fri 05:23:52 AM 49.0758 0.6590 271° West 486 559 28,800 -769 Descending FlightAware UK
Fri 05:24:16 AM 49.0766 0.5834 271° West 496 571 29,100 3,800 Climbing FlightAware UK
Fri 05:24:22 AM 49.0770 0.5820 271° West 459 528 30,700 1,429 Climbing FlightAware ADS-B
Fri 05:24:58 AM 49.0783 0.4492 271° West 502 578 30,100 1,350 Descending FlightAware UK
Fri 05:25:02 AM 49.0780 0.4560 271° West 462 532 31,600 1,500 Climbing FlightAware ADS-B
Fri 05:25:22 AM 49.0830 0.3703 271° West 502 578 30,700 1,371 Descending FlightAware UK
Fri 05:25:37 AM 49.0860 0.3460 279° West 464 534 32,400 1,333 Climbing FlightAware ADS-B
Fri 05:25:40 AM 49.0890 0.3123 279° West 498 573 31,100 -1,273 Descending FlightAware UK
Fri 05:26:10 AM 49.1018 0.2167 279° West 496 571 31,700 3,064 Climbing FlightAware UK
Fri 05:26:27 AM 49.1080 0.1690 279° West 466 536 33,500 1,333 Climbing FlightAware ADS-B
Fri 05:26:46 AM 49.1163 0.1003 279° West 500 575 32,500 -1,429 Descending FlightAware UK
Fri 05:27:09 AM 49.1258 0.0233 281° West 504 580 32,500 3,462 Level FlightAware UK
Fri 05:27:12 AM 49.1250 0.0270 281° West 466 536 34,000  Climbing FlightAware ADS-B
Fri 05:28:03 AM 49.1471 -0.1516 281° West 504 580 32,500  Descending FlightAware UK
Fri 05:28:07 AM 49.1480 -0.1540 281° West 466 536 34,000  Climbing FlightAware ADS-B
Fri 05:28:33 AM 49.1594 -0.2488 281° West 502 578 32,500  Descending FlightAware UK
Fri 05:28:42 AM 49.1620 -0.2630 281° West 468 539 34,000  Climbing FlightAware ADS-B
Fri 05:28:57 AM 49.1690 -0.3257 281° West 502 578 32,500 -2,133 Descending FlightAware UK
Fri 05:29:27 AM 49.1809 -0.4227 281° West 502 578 32,400 2,571 Descending FlightAware UK
Fri 05:29:32 AM 49.1820 -0.4270 281° West 466 536 34,000 250 Climbing FlightAware ADS-B
Fri 05:29:51 AM 49.1903 -0.5004 281° West 500 575 32,500  Descending FlightAware UK
Fri 05:30:12 AM 49.1980 -0.5570 281° West 468 539 34,000 -100 Climbing FlightAware ADS-B
Fri 05:30:51 AM 49.2137 -0.6946 281° West 502 578 32,400  Descending FlightAware UK
Fri 05:30:52 AM 49.2130 -0.6840 281° West 470 541 34,000 333 Climbing FlightAware ADS-B
Fri 05:31:09 AM 49.2208 -0.7534 281° West 506 582 32,500  Descending FlightAware UK
Fri 05:31:32 AM 49.2280 -0.8070 281° West 470 541 34,000 -143 Climbing FlightAware ADS-B
Fri 05:31:51 AM 49.2374 -0.8908 281° West 508 585 32,400  Descending FlightAware UK
Fri 05:32:17 AM 49.2460 -0.9600 281° West 467 537 34,000  Climbing FlightAware ADS-B
Fri 05:32:51 AM 49.2600 -1.0850 281° West 504 580 32,400  Descending FlightAware UK
Fri 05:32:57 AM 49.2610 -1.0930 281° West 466 536 34,000 125 Climbing FlightAware ADS-B
Fri 05:33:39 AM 49.2780 -1.2403 281° West 504 580 32,500  Descending FlightAware UK
Fri 05:33:42 AM 49.2780 -1.2350 281° West 465 535 34,000  Climbing FlightAware ADS-B
Fri 05:33:57 AM 49.2846 -1.2986 281° West 502 578 32,500 -2,368 Descending FlightAware UK
Fri 05:34:20 AM 49.2935 -1.3755 280° West 502 578 32,500 3,000 Level FlightAware UK
Fri 05:34:27 AM 49.2950 -1.3830 280° West 465 535 34,000 1,915 Climbing FlightAware ADS-B
Fri 05:35:07 AM 49.3090 -1.5110 280° West 464 534 34,000 -1,525 Level FlightAware ADS-B
Fri 05:35:26 AM 49.3180 -1.5893 280° West 502 578 32,500 -2,432 Descending FlightAware UK
Fri 05:35:44 AM 49.3246 -1.6469 280° West 504 580 32,500 3,462 Level FlightAware UK
Fri 05:35:52 AM 49.3250 -1.6520 280° West 464 534 34,000  Climbing FlightAware ADS-B
Fri 05:36:08 AM 49.3335 -1.7248 280° West 506 582 32,500  Descending FlightAware UK
Fri 05:36:27 AM 49.3390 -1.7730 280° West 463 533 34,000  Climbing FlightAware ADS-B
Fri 05:36:44 AM 49.3459 -1.8416 280° West 504 580 32,500 -2,195 Descending FlightAware UK
Fri 05:37:08 AM 49.3540 -1.9185 279° West 502 578 32,500 2,727 Level FlightAware UK
Fri 05:37:17 AM 49.3560 -1.9360 279° West 460 529 34,000  Climbing FlightAware ADS-B
Fri 05:37:44 AM 49.3665 -2.0345 279° West 500 575 32,500  Descending FlightAware UK
Fri 05:37:57 AM 49.3690 -2.0580 279° West 461 531 34,000  Climbing FlightAware ADS-B
Fri 05:38:14 AM 49.3769 -2.1298 279° West 504 580 32,500  Descending FlightAware UK
Fri 05:38:37 AM 49.3830 -2.1800 279° West 461 531 34,000  Climbing FlightAware ADS-B
Fri 05:38:56 AM 49.3914 -2.2652 279° West 498 573 32,500  Descending FlightAware UK
Fri 05:39:22 AM 49.3990 -2.3380 279° West 462 532 34,000  Climbing FlightAware ADS-B
Fri 05:39:50 AM 49.4097 -2.4406 279° West 502 578 32,500  Descending FlightAware UK
Fri 05:39:52 AM 49.4080 -2.4250 279° West 462 532 34,000  Climbing FlightAware ADS-B
Fri 05:40:38 AM 49.4256 -2.5957 279° West 504 580 32,500 -1,286 Descending FlightAware UK
Fri 05:41:02 AM 49.4338 -2.6731 279° West 502 578 32,500 2,647 Level FlightAware UK
Fri 05:41:12 AM 49.4340 -2.6750 279° West 460 529 34,000 -207 Climbing FlightAware ADS-B
Fri 05:41:31 AM 49.4435 -2.7693 279° West 502 578 32,400 -2,595 Descending FlightAware UK
Fri 05:41:49 AM 49.4493 -2.8274 279° West 502 578 32,400 3,692 Level FlightAware UK
Fri 05:41:57 AM 49.4490 -2.8260 279° West 459 528 34,000 200 Climbing FlightAware ADS-B
Fri 05:42:19 AM 49.4590 -2.9237 279° West 502 578 32,500  Descending FlightAware UK
Fri 05:42:37 AM 49.4630 -2.9590 279° West 458 527 34,000  Climbing FlightAware ADS-B
Fri 05:43:01 AM 49.4722 -3.0579 279° West 498 573 32,500  Descending FlightAware UK
Fri 05:43:22 AM 49.4770 -3.1040 279° West 458 527 34,000 1,475 Climbing FlightAware ADS-B
Fri 05:44:02 AM 49.4890 -3.2300 278° West 460 529 34,000 -1,304 Level FlightAware ADS-B
Fri 05:44:31 AM 49.5005 -3.3477 278° West 500 575 32,500  Descending FlightAware UK
Fri 05:44:42 AM 49.5030 -3.3690 278° West 462 532 34,000 1,607 Climbing FlightAware ADS-B
Fri 05:45:27 AM 49.5170 -3.5160 278° West 463 533 34,000 -1,475 Level FlightAware ADS-B
Fri 05:45:43 AM 49.5229 -3.5810 278° West 504 580 32,500  Descending FlightAware UK
Fri 05:46:07 AM 49.5330 -3.6450 278° West 460 529 34,000  Climbing FlightAware ADS-B
Fri 05:46:31 AM 49.5444 -3.7338 278° West 500 575 32,500  Descending FlightAware UK
Fri 05:46:47 AM 49.5490 -3.7710 278° West 459 528 34,000  Climbing FlightAware ADS-B
Fri 05:47:07 AM 49.5594 -3.8489 278° West 498 573 32,500  Descending FlightAware UK
Fri 05:47:32 AM 49.5680 -3.9170 278° West 460 529 34,000  Climbing FlightAware ADS-B
Fri 05:47:49 AM 49.5763 -3.9837 278° West 502 578 32,500 -2,571 Descending FlightAware UK
Fri 05:48:07 AM 49.5834 -4.0409 281° West 500 575 32,500 3,913 Level FlightAware UK
Fri 05:48:12 AM 49.5840 -4.0430 281° West 459 528 34,000  Climbing FlightAware ADS-B
Fri 05:48:31 AM 49.5926 -4.1179 281° West 500 575 32,500  Descending FlightAware UK
Fri 05:48:47 AM 49.5980 -4.1620 281° West 459 528 34,000  Climbing FlightAware ADS-B
Fri 05:49:25 AM 49.6133 -4.2911 281° West 500 575 32,500  Descending FlightAware UK
Fri 05:49:32 AM 49.6150 -4.3030 281° West 458 527 34,000  Climbing FlightAware ADS-B
Fri 05:49:54 AM 49.6246 -4.3866 281° West 504 580 32,500 -1,915 Descending FlightAware UK
Fri 05:50:19 AM 49.6338 -4.4641 280° West 504 580 32,500  Level FlightAware UK
Fri 05:51:12 AM 49.6539 -4.6345 280° West 496 571 32,500  Level FlightAware UK
Fri 05:51:30 AM 49.6606 -4.6910 280° West 496 571 32,500  Level FlightAware UK
Fri 05:51:48 AM 49.6674 -4.7474 281° West 492 566 32,500  Level FlightAware UK
Fri 05:52:06 AM 49.6741 -4.8041 280° West 494 568 32,500  Level FlightAware UK
Fri 05:52:24 AM 49.6807 -4.8610 280° West 498 573 32,500  Level FlightAware UK
Fri 05:52:42 AM 49.6873 -4.9180 280° West 500 575 32,500  Level FlightAware UK
Fri 05:53:00 AM 49.6940 -4.9750 280° West 498 573 32,500 3,600 Level FlightAware UK
Fri 05:53:07 AM 49.6950 -4.9770 280° West 449 517 34,000  Climbing FlightAware ADS-B
Fri 05:53:24 AM 49.7028 -5.0502 280° West 496 571 32,500 -2,571 Descending FlightAware UK
Fri 05:53:42 AM 49.7089 -5.1067 279° West 496 571 32,500  Level FlightAware UK
Fri 05:54:00 AM 49.7150 -5.1634 280° West 496 571 32,500 3,000 Level FlightAware UK
Fri 05:54:12 AM 49.7180 -5.1840 280° West 447 514 34,000  Climbing FlightAware ADS-B
Fri 05:54:36 AM 49.7280 -5.2762 280° West 496 571 32,500  Descending FlightAware UK
Fri 05:54:52 AM 49.7310 -5.3040 280° West 445 512 34,000  Climbing FlightAware ADS-B
Fri 05:55:12 AM 49.7404 -5.3889 280° West 492 566 32,500 -2,368 Descending FlightAware UK
Fri 05:55:30 AM 49.7465 -5.4452 280° West 490 564 32,500 3,600 Level FlightAware UK
Fri 05:55:37 AM 49.7480 -5.4520 280° West 445 512 34,000  Climbing FlightAware ADS-B
Fri 05:56:00 AM 49.7571 -5.5389 280° West 490 564 32,500  Descending FlightAware UK
Fri 05:56:17 AM 49.7620 -5.5760 280° West 446 513 34,000  Climbing FlightAware ADS-B
Fri 05:56:42 AM 49.7714 -5.6707 280° West 490 564 32,500  Descending FlightAware UK
Fri 05:56:57 AM 49.7750 -5.7030 280° West 448 516 34,000  Climbing FlightAware ADS-B
Fri 05:57:12 AM 49.7819 -5.7652 280° West 492 566 32,500 -2,727 Descending FlightAware UK
Fri 05:57:30 AM 49.7880 -5.8220 279° West 494 568 32,500 3,000 Level FlightAware UK
Fri 05:57:42 AM 49.7910 -5.8480 279° West 450 518 34,000  Climbing FlightAware ADS-B
Fri 05:58:00 AM 49.7979 -5.9166 279° West 492 566 32,500 -2,500 Descending FlightAware UK
Fri 05:58:18 AM 49.8038 -5.9737 279° West 488 562 32,500 4,091 Level FlightAware UK
Fri 05:58:22 AM 49.8030 -5.9610 279° West 450 518 34,000  Climbing FlightAware ADS-B
Fri 05:58:42 AM 49.8118 -6.0499 279° West 490 564 32,500 -2,368 Descending FlightAware UK
Fri 05:59:00 AM 49.8179 -6.1071 279° West 494 568 32,500 4,500 Level FlightAware UK
Fri 05:59:02 AM 49.8180 -6.1010 279° West 451 519 34,000  Climbing FlightAware ADS-B
Fri 05:59:18 AM 49.8239 -6.1645 279° West 494 568 32,500 -2,647 Descending FlightAware UK
Fri 05:59:36 AM 49.8300 -6.2218 279° West 492 566 32,500 3,103 Level FlightAware UK
Fri 05:59:47 AM 49.8330 -6.2430 279° West 451 519 34,000  Climbing FlightAware ADS-B
Fri 06:00:12 AM 49.8418 -6.3365 279° West 492 566 32,500  Descending FlightAware UK
Fri 06:00:27 AM 49.8450 -6.3680 279° West 451 519 34,000  Climbing FlightAware ADS-B
Fri 06:00:42 AM 49.8513 -6.4321 279° West 492 566 32,500 -2,727 Descending FlightAware UK
Fri 06:01:00 AM 49.8570 -6.4896 279° West 490 564 32,500 3,000 Level FlightAware UK
Fri 06:01:12 AM 49.8610 -6.5190 279° West 452 520 34,000  Climbing FlightAware ADS-B
Fri 06:01:30 AM 49.8667 -6.5853 279° West 490 564 32,500 -2,500 Descending FlightAware UK
Fri 06:01:48 AM 49.8735 -6.6425 281° West 490 564 32,500 4,091 Level FlightAware UK
Fri 06:01:52 AM 49.8760 -6.6450 281° West 451 519 34,000  Climbing FlightAware ADS-B
Fri 06:02:12 AM 49.8862 -6.7170 281° West 490 564 32,500  Descending FlightAware UK
Fri 06:02:32 AM 49.8960 -6.7730 281° West 451 519 34,000  Climbing FlightAware ADS-B
Fri 06:02:48 AM 49.9050 -6.8295 281° West 488 562 32,500 -2,647 Descending FlightAware UK
Fri 06:03:06 AM 49.9147 -6.8857 285° West 494 568 32,500 3,103 Level FlightAware UK
Fri 06:03:17 AM 49.9190 -6.9030 285° West 453 521 34,000  Climbing FlightAware ADS-B
Fri 06:03:36 AM 49.9314 -6.9795 285° West 494 568 32,500 -2,432 Descending FlightAware UK
Fri 06:03:54 AM 49.9412 -7.0352 285° West 492 566 32,500 4,286 Level FlightAware UK
Fri 06:03:57 AM 49.9400 -7.0220 285° West 452 520 34,000  Climbing FlightAware ADS-B
Fri 06:04:12 AM 49.9511 -7.0915 285° West 496 571 32,500 -2,727 Descending FlightAware UK
Fri 06:04:30 AM 49.9610 -7.1478 285° West 496 571 32,500 3,600 Level FlightAware UK
Fri 06:04:37 AM 49.9600 -7.1420 285° West 452 520 34,000  Climbing FlightAware ADS-B
Fri 06:04:54 AM 49.9739 -7.2230 285° West 494 568 32,500 -2,571 Descending FlightAware UK
Fri 06:05:12 AM 49.9836 -7.2793 285° West 494 568 32,500 3,214 Level FlightAware UK
Fri 06:05:22 AM 49.9890 -7.3070 285° West 450 518 34,000  Climbing FlightAware ADS-B
Fri 06:05:42 AM 49.9993 -7.3731 285° West 492 566 32,500 -2,368 Descending FlightAware UK
Fri 06:06:00 AM 50.0086 -7.4294 284° West 490 564 32,500 4,500 Level FlightAware UK
Fri 06:06:02 AM 50.0080 -7.4250 284° West 451 519 34,000  Climbing FlightAware ADS-B
Fri 06:06:18 AM 50.0179 -7.4857 284° West 490 564 32,500 -2,647 Descending FlightAware UK
Fri 06:06:36 AM 50.0272 -7.5422 284° West 488 562 32,500 3,103 Level FlightAware UK
Fri 06:06:47 AM 50.0320 -7.5660 284° West 453 521 34,000  Climbing FlightAware ADS-B
Fri 06:07:06 AM 50.0427 -7.6363 284° West 490 564 32,500 -2,432 Descending FlightAware UK
Fri 06:07:24 AM 50.0520 -7.6930 284° West 488 562 32,500 4,286 Level FlightAware UK
Fri 06:07:27 AM 50.0540 -7.6990 284° West 455 524 34,000  Climbing FlightAware ADS-B
Fri 06:07:42 AM 50.0613 -7.7498 284° West 488 562 32,500  Descending FlightAware UK
Fri 06:08:07 AM 50.0740 -7.8260 284° West 458 527 34,000  Climbing FlightAware ADS-B
Fri 06:08:24 AM 50.0835 -7.8831 284° West 492 566 32,500 -2,571 Descending FlightAware UK
Fri 06:08:42 AM 50.0929 -7.9405 284° West 494 568 32,500 3,214 Level FlightAware UK
Fri 06:08:52 AM 50.0980 -7.9690 284° West 458 527 34,000  Climbing FlightAware ADS-B
Fri 06:09:12 AM 50.1081 -8.0368 284° West 492 566 32,500 -2,368 Descending FlightAware UK
Fri 06:09:30 AM 50.1173 -8.0946 284° West 492 566 32,500 4,500 Level FlightAware UK
Fri 06:09:32 AM 50.1180 -8.0980 284° West 458 527 34,000  Climbing FlightAware ADS-B
Fri 06:09:48 AM 50.1263 -8.1517 284° West 490 564 32,500 -2,647 Descending FlightAware UK
Fri 06:10:06 AM 50.1354 -8.2093 284° West 492 566 32,500 3,103 Level FlightAware UK
Fri 06:10:17 AM 50.1400 -8.2350 284° West 459 528 34,000  Climbing FlightAware ADS-B
Fri 06:10:36 AM 50.1508 -8.3053 284° West 492 566 32,500  Descending FlightAware UK
Fri 06:10:57 AM 50.1610 -8.3670 284° West 458 527 34,000  Climbing FlightAware ADS-B
Fri 06:11:12 AM 50.1689 -8.4205 284° West 490 564 32,500 -2,727 Descending FlightAware UK
Fri 06:11:30 AM 50.1779 -8.4782 284° West 488 562 32,500 3,600 Level FlightAware UK
Fri 06:11:37 AM 50.1810 -8.4960 284° West 459 528 34,000  Climbing FlightAware ADS-B
Fri 06:12:00 AM 50.1929 -8.5745 284° West 492 566 32,500 -2,195 Descending FlightAware UK
Fri 06:12:18 AM 50.2020 -8.6323 284° West 494 568 32,500 4,091 Level FlightAware UK
Fri 06:12:22 AM 50.2020 -8.6300 284° West 460 529 34,000  Climbing FlightAware ADS-B
Fri 06:12:42 AM 50.2140 -8.7095 284° West 494 568 32,500 -2,368 Descending FlightAware UK
Fri 06:13:00 AM 50.2228 -8.7674 283° West 494 568 32,500 4,500 Level FlightAware UK
Fri 06:13:02 AM 50.2230 -8.7630 283° West 459 528 34,000  Climbing FlightAware ADS-B
Fri 06:13:18 AM 50.2317 -8.8254 283° West 494 568 32,500 -2,647 Descending FlightAware UK
Fri 06:13:36 AM 50.2406 -8.8833 283° West 496 571 32,500  Level FlightAware UK
Fri 06:13:54 AM 50.2493 -8.9411 283° West 494 568 32,500 4,286 Level FlightAware UK
Fri 06:13:57 AM 50.2490 -8.9320 283° West 454 522 34,000  Climbing FlightAware ADS-B
Fri 06:14:12 AM 50.2580 -8.9988 283° West 496 571 32,500  Descending FlightAware UK
Fri 06:14:37 AM 50.2640 -9.0480 283° West 454 522 34,000 1,286 Climbing FlightAware ADS-B
Fri 06:15:22 AM 50.2920 -9.2160 285° West 452 520 34,000  Level FlightAware ADS-B
Fri 06:15:57 AM 50.3080 -9.3260 283° West 452 520 34,000  Level FlightAware ADS-B
Fri 06:17:27 AM 50.3480 -9.5960 283° West 449 517 34,000  Level FlightAware ADS-B
Fri 06:18:07 AM 50.3640 -9.7040 283° West 449 517 34,000  Level FlightAware ADS-B
Fri 06:18:47 AM 50.3790 -9.8120 282° West 449 517 34,000  Level FlightAware ADS-B
Fri 06:19:27 AM 50.3950 -9.9200 283° West 449 517 34,000  Level FlightAware ADS-B
Fri 06:20:17 AM 50.4150 -10.0550 283° West 449 517 34,000  Level FlightAware ADS-B
Fri 06:20:57 AM 50.4310 -10.1630 283° West 449 517 34,000  Level FlightAware ADS-B
Fri 06:21:37 AM 50.4600 -10.3850 282° West 444 511 34,000  Level FlightAware ADS-B
Fri 06:22:22 AM 50.4770 -10.5140 282° West 444 511 34,000  Level FlightAware ADS-B
Fri 06:23:02 AM 50.4920 -10.6210 282° West 444 511 34,000  Level FlightAware ADS-B
Fri 06:23:42 AM 50.5140 -10.7850 282° West 440 506 34,000  Level FlightAware ADS-B
Fri 06:24:27 AM 50.5300 -10.9080 282° West 440 506 34,000  Level FlightAware ADS-B
Fri 06:25:07 AM 50.5430 -11.0150 281° West 440 506 34,000  Level FlightAware ADS-B
Fri 06:25:47 AM 50.5560 -11.1220 281° West 440 506 34,000  Level FlightAware ADS-B
Fri 06:26:37 AM 50.5730 -11.2560 281° West 440 506 34,000  Level FlightAware ADS-B
Fri 06:27:17 AM 50.5860 -11.3630 281° West 440 506 34,000  Level FlightAware ADS-B
Fri 06:27:57 AM 50.5990 -11.4700 281° West 440 506 34,000  Level FlightAware ADS-B
Fri 06:28:37 AM 50.6120 -11.5770 281° West 440 506 34,000  Level FlightAware ADS-B
Fri 06:29:17 AM 50.6250 -11.6840 281° West 440 506 34,000  Level FlightAware ADS-B
Fri 06:30:07 AM 50.6420 -11.8180 281° West 440 506 34,000  Level FlightAware ADS-B
Fri 06:30:47 AM 50.6550 -11.9250 281° West 440 506 34,000  Level FlightAware ADS-B
Fri 06:31:27 AM 50.6680 -12.0320 281° West 440 506 34,000  Level FlightAware ADS-B
Fri 06:32:07 AM 50.6810 -12.1390 281° West 440 506 34,000  Level FlightAware ADS-B
Fri 06:32:47 AM 50.6950 -12.2460 282° West 440 506 34,000  Level FlightAware ADS-B
Fri 06:33:37 AM 50.7110 -12.3810 281° West 440 506 34,000  Level FlightAware ADS-B
Fri 06:36:00 AM 50.7866 -12.7691 287° West  Level Estimated
Fri 06:37:00 AM 50.8179 -12.9323 287° West  Level Estimated
Fri 06:38:00 AM 50.8490 -13.0958 287° West  Level Estimated
Fri 06:39:00 AM 50.8799 -13.2594 287° West  Level Estimated
Fri 06:40:00 AM 50.9106 -13.4233 287° West  Level Estimated
Fri 06:41:00 AM 50.9410 -13.5874 286° West  Level Estimated
Fri 06:42:00 AM 50.9712 -13.7517 286° West  Level Estimated
Fri 06:43:00 AM 51.0011 -13.9162 286° West  Level Estimated
Fri 06:44:00 AM 51.0309 -14.0809 286° West  Level Estimated
Fri 06:45:00 AM 51.0604 -14.2458 286° West  Level Estimated
Fri 06:46:00 AM 51.0896 -14.4110 286° West  Level Estimated
Fri 06:47:00 AM 51.1187 -14.5763 286° West  Level Estimated
Fri 06:48:00 AM 51.1475 -14.7419 286° West  Level Estimated
Fri 06:49:00 AM 51.1760 -14.9076 285° West  Level Estimated
Fri 06:50:00 AM 51.2043 -15.0736 285° West  Level Estimated
Fri 06:51:00 AM 51.2324 -15.2398 285° West  Level Estimated
Fri 06:52:00 AM 51.2603 -15.4061 285° West  Level Estimated
Fri 06:53:00 AM 51.2879 -15.5727 285° West  Level Estimated
Fri 06:54:00 AM 51.3153 -15.7395 285° West  Level Estimated
Fri 06:55:00 AM 51.3424 -15.9065 285° West  Level Estimated
Fri 06:56:00 AM 51.3694 -16.0736 285° West  Level Estimated
Fri 06:57:00 AM 51.3960 -16.2410 284° West  Level Estimated
Fri 06:58:00 AM 51.4225 -16.4086 284° West  Level Estimated
Fri 06:59:00 AM 51.4487 -16.5763 284° West  Level Estimated
Fri 07:00:00 AM 51.4752 -16.7482 284° West  Level Estimated
Fri 07:01:00 AM 51.5015 -16.9202 284° West  Level Estimated
Fri 07:02:00 AM 51.5276 -17.0925 284° West  Level Estimated
Fri 07:03:00 AM 51.5534 -17.2650 284° West  Level Estimated
Fri 07:04:00 AM 51.5789 -17.4376 283° West  Level Estimated
Fri 07:05:00 AM 51.6042 -17.6105 283° West  Level Estimated
Fri 07:06:00 AM 51.6292 -17.7835 283° West  Level Estimated
Fri 07:07:00 AM 51.6540 -17.9567 283° West  Level Estimated
Fri 07:08:00 AM 51.6786 -18.1302 283° West  Level Estimated
Fri 07:09:00 AM 51.7029 -18.3038 283° West  Level Estimated
Fri 07:10:00 AM 51.7269 -18.4776 283° West  Level Estimated
Fri 07:11:00 AM 51.7506 -18.6515 283° West  Level Estimated
Fri 07:11:00 AM 51.0000 -20.0000 274° West 443 510 34,000  Level ETMS Enhanced Traffic Management System
Fri 07:12:00 AM 51.7741 -18.8257 282° West  Level Estimated
Fri 07:13:00 AM 51.7974 -19.0000 282° West  Level Estimated
Fri 07:14:00 AM 51.8204 -19.1746 282° West  Level Estimated
Fri 07:15:00 AM 51.8431 -19.3493 282° West  Level Estimated
Fri 07:16:00 AM 51.8656 -19.5241 282° West  Level Estimated
Fri 07:17:00 AM 51.0443 -21.1740 273° West 443 510 34,000  Level FlightAware Transoceanic
Fri 07:18:00 AM 51.0505 -21.3699 273° West 443 510 34,000  Level FlightAware Transoceanic
Fri 07:19:00 AM 51.0565 -21.5658 273° West 443 510 34,000  Level FlightAware Transoceanic
Fri 07:20:00 AM 51.0620 -21.7618 273° West 443 510 34,000  Level FlightAware Transoceanic
Fri 07:21:00 AM 51.0673 -21.9578 272° West 443 510 34,000  Level FlightAware Transoceanic
Fri 07:22:00 AM 51.0722 -22.1539 272° West 443 510 34,000  Level FlightAware Transoceanic
Fri 07:23:00 AM 51.0768 -22.3500 272° West 443 510 34,000  Level FlightAware Transoceanic
Fri 07:24:00 AM 51.0811 -22.5462 272° West 443 510 34,000  Level FlightAware Transoceanic
Fri 07:25:00 AM 51.0850 -22.7423 272° West 443 510 34,000  Level FlightAware Transoceanic
Fri 07:26:00 AM 51.0887 -22.9386 272° West 443 510 34,000  Level FlightAware Transoceanic
Fri 07:27:00 AM 51.0919 -23.1348 271° West 443 510 34,000  Level FlightAware Transoceanic
Fri 07:28:00 AM 51.0949 -23.3311 271° West 443 510 34,000  Level FlightAware Transoceanic
Fri 07:29:00 AM 51.0975 -23.5273 271° West 443 510 34,000  Level FlightAware Transoceanic
Fri 07:30:00 AM 51.0998 -23.7237 271° West 443 510 34,000  Level FlightAware Transoceanic
Fri 07:31:00 AM 51.1018 -23.9200 271° West 443 510 34,000  Level FlightAware Transoceanic
Fri 07:32:00 AM 51.1035 -24.1163 271° West 443 510 34,000  Level FlightAware Transoceanic
Fri 07:33:00 AM 51.1048 -24.3127 271° West 443 510 34,000  Level FlightAware Transoceanic
Fri 07:34:00 AM 51.1058 -24.5091 270° West 443 510 34,000  Level FlightAware Transoceanic
Fri 07:35:00 AM 51.1064 -24.7054 270° West 443 510 34,000  Level FlightAware Transoceanic
Fri 07:36:00 AM 51.1068 -24.9018 270° West 443 510 34,000  Level FlightAware Transoceanic
Fri 07:37:00 AM 51.1068 -25.0982 270° West 443 510 34,000  Level FlightAware Transoceanic
Fri 07:38:00 AM 51.1064 -25.2946 270° West 443 510 34,000  Level FlightAware Transoceanic
Fri 07:39:00 AM 51.1058 -25.4909 270° West 443 510 34,000  Level FlightAware Transoceanic
Fri 07:40:00 AM 51.1048 -25.6873 269° West 443 510 34,000  Level FlightAware Transoceanic
Fri 07:41:00 AM 51.1035 -25.8837 269° West 443 510 34,000  Level FlightAware Transoceanic
Fri 07:42:00 AM 51.1018 -26.0800 269° West 443 510 34,000  Level FlightAware Transoceanic
Fri 07:43:00 AM 51.0998 -26.2763 269° West 443 510 34,000  Level FlightAware Transoceanic
Fri 07:44:00 AM 51.0975 -26.4727 269° West 443 510 34,000  Level FlightAware Transoceanic
Fri 07:45:00 AM 51.0949 -26.6689 269° West 443 510 34,000  Level FlightAware Transoceanic
Fri 07:46:00 AM 51.0919 -26.8652 269° West 443 510 34,000  Level FlightAware Transoceanic
Fri 07:47:00 AM 51.0887 -27.0614 268° West 443 510 34,000  Level FlightAware Transoceanic
Fri 07:48:00 AM 51.0850 -27.2577 268° West 443 510 34,000  Level FlightAware Transoceanic
Fri 07:49:00 AM 51.0811 -27.4538 268° West 443 510 34,000  Level FlightAware Transoceanic
Fri 07:50:00 AM 51.0768 -27.6500 268° West 443 510 34,000  Level FlightAware Transoceanic
Fri 07:51:00 AM 51.0722 -27.8461 268° West 443 510 34,000  Level FlightAware Transoceanic
Fri 07:52:00 AM 51.0673 -28.0422 268° West 443 510 34,000  Level FlightAware Transoceanic
Fri 07:53:00 AM 51.0620 -28.2382 267° West 443 510 34,000  Level FlightAware Transoceanic
Fri 07:54:00 AM 51.0565 -28.4342 267° West 443 510 34,000  Level FlightAware Transoceanic
Fri 07:55:00 AM 51.0505 -28.6301 267° West 443 510 34,000  Level FlightAware Transoceanic
Fri 07:56:00 AM 51.0443 -28.8260 267° West 443 510 34,000  Level FlightAware Transoceanic
Fri 07:57:00 AM 51.0377 -29.0218 267° West 443 510 34,000  Level FlightAware Transoceanic
Fri 07:58:00 AM 51.0308 -29.2176 267° West 443 510 34,000  Level FlightAware Transoceanic
Fri 07:59:00 AM 51.0236 -29.4133 267° West 443 510 34,000  Level FlightAware Transoceanic
Fri 08:00:00 AM 51.0161 -29.6089 266° West 443 510 34,000  Level FlightAware Transoceanic
Fri 08:01:00 AM 51.0082 -29.8045 266° West 443 510 34,000 18 Level FlightAware Transoceanic
Fri 08:02:00 AM 51.0009 -29.9794 266° West  Level FlightAware Approximate
Fri 08:03:00 AM 50.9933 -30.1543 266° West  Level FlightAware Approximate
Fri 08:04:00 AM 50.9925 -30.1335 265° West  Level FlightAware Approximate
Fri 08:05:00 AM 50.9825 -30.3081 265° West  Level FlightAware Approximate
Fri 08:06:00 AM 50.9722 -30.4825 265° West  Level FlightAware Approximate
Fri 08:07:00 AM 50.9616 -30.6569 265° West  Level FlightAware Approximate
Fri 08:08:00 AM 50.9508 -30.8312 264° West  Level FlightAware Approximate
Fri 08:09:00 AM 50.9397 -31.0054 264° West  Level FlightAware Approximate
Fri 08:10:00 AM 50.9284 -31.1795 264° West  Level FlightAware Approximate
Fri 08:11:00 AM 50.9168 -31.3536 264° West  Level FlightAware Approximate
Fri 08:12:00 AM 50.9049 -31.5275 264° West  Level FlightAware Approximate
Fri 08:13:00 AM 50.8928 -31.7014 264° West  Level FlightAware Approximate
Fri 08:14:00 AM 50.8804 -31.8752 264° West  Level FlightAware Approximate
Fri 08:15:00 AM 50.8678 -32.0489 263° West  Level FlightAware Approximate
Fri 08:16:00 AM 50.8549 -32.2225 263° West  Level FlightAware Approximate
Fri 08:17:00 AM 50.8418 -32.3959 263° West  Level FlightAware Approximate
Fri 08:18:00 AM 50.8284 -32.5693 263° West  Level FlightAware Approximate
Fri 08:19:00 AM 50.8147 -32.7426 263° West  Level FlightAware Approximate
Fri 08:20:00 AM 50.8008 -32.9158 263° West  Level FlightAware Approximate
Fri 08:21:00 AM 50.7866 -33.0889 263° West  Level FlightAware Approximate
Fri 08:22:00 AM 50.7722 -33.2619 263° West  Level FlightAware Approximate
Fri 08:23:00 AM 50.7575 -33.4347 262° West  Level FlightAware Approximate
Fri 08:24:00 AM 50.7426 -33.6075 262° West  Level FlightAware Approximate
Fri 08:25:00 AM 50.7274 -33.7802 262° West  Level FlightAware Approximate
Fri 08:26:00 AM 50.7119 -33.9527 262° West  Level FlightAware Approximate
Fri 08:27:00 AM 50.6962 -34.1251 262° West  Level FlightAware Approximate
Fri 08:28:00 AM 50.6803 -34.2974 262° West  Level FlightAware Approximate
Fri 08:29:00 AM 50.6641 -34.4696 262° West  Level FlightAware Approximate
Fri 08:30:00 AM 50.6476 -34.6417 261° West  Level FlightAware Approximate
Fri 08:31:00 AM 50.6309 -34.8136 261° West  Level FlightAware Approximate
Fri 08:32:00 AM 50.6139 -34.9855 261° West  Level FlightAware Approximate
Fri 08:33:00 AM 50.5967 -35.1572 261° West  Level FlightAware Approximate
Fri 08:34:00 AM 50.5792 -35.3287 261° West  Level FlightAware Approximate
Fri 08:35:00 AM 50.5615 -35.5002 261° West  Level FlightAware Approximate
Fri 08:36:00 AM 50.5435 -35.6715 261° West  Level FlightAware Approximate
Fri 08:37:00 AM 50.5253 -35.8427 261° West  Level FlightAware Approximate
Fri 08:38:00 AM 50.5068 -36.0137 260° West  Level FlightAware Approximate
Fri 08:39:00 AM 50.4881 -36.1847 260° West  Level FlightAware Approximate
Fri 08:40:00 AM 50.4691 -36.3554 260° West  Level FlightAware Approximate
Fri 08:41:00 AM 50.4499 -36.5261 260° West  Level FlightAware Approximate
Fri 08:42:00 AM 50.4304 -36.6966 260° West  Level FlightAware Approximate
Fri 08:43:00 AM 50.4107 -36.8669 260° West  Level FlightAware Approximate
Fri 08:44:00 AM 50.3907 -37.0372 260° West  Level FlightAware Approximate
Fri 08:45:00 AM 50.3704 -37.2072 260° West  Level FlightAware Approximate
Fri 08:46:00 AM 50.3500 -37.3772 259° West  Level FlightAware Approximate
Fri 08:47:00 AM 50.3293 -37.5469 259° West  Level FlightAware Approximate
Fri 08:48:00 AM 50.3083 -37.7166 259° West  Level FlightAware Approximate
Fri 08:49:00 AM 50.2871 -37.8861 259° West  Level FlightAware Approximate
Fri 08:50:00 AM 50.2656 -38.0554 259° West  Level FlightAware Approximate
Fri 08:51:00 AM 50.2439 -38.2246 259° West  Level FlightAware Approximate
Fri 08:52:00 AM 50.2220 -38.3936 259° West  Level FlightAware Approximate
Fri 08:53:00 AM 50.1998 -38.5625 258° West  Level FlightAware Approximate
Fri 08:54:00 AM 50.1773 -38.7312 258° West  Level FlightAware Approximate
Fri 08:55:00 AM 50.1546 -38.8997 258° West  Level FlightAware Approximate
Fri 08:56:00 AM 50.1317 -39.0681 258° West  Level FlightAware Approximate
Fri 08:57:00 AM 50.1085 -39.2363 258° West  Level FlightAware Approximate
Fri 08:58:00 AM 50.0851 -39.4044 258° West  Level FlightAware Approximate
Fri 08:59:00 AM 50.0615 -39.5723 258° West  Level FlightAware Approximate
Fri 09:00:00 AM 50.0376 -39.7400 258° West  Level FlightAware Approximate
Fri 09:01:00 AM 50.0134 -39.9076 257° West  Level FlightAware Approximate
Fri 09:02:00 AM 49.9822 -40.0717 249° West  Level FlightAware Approximate
Fri 09:03:00 AM 49.9422 -40.2316 249° West  Level FlightAware Approximate
Fri 09:04:00 AM 49.9021 -40.3912 249° West  Level FlightAware Approximate
Fri 09:05:00 AM 49.8617 -40.5505 249° West  Level FlightAware Approximate
Fri 09:06:00 AM 49.8212 -40.7096 248° West  Level FlightAware Approximate
Fri 09:07:00 AM 49.7803 -40.8684 248° West  Level FlightAware Approximate
Fri 09:08:00 AM 49.7393 -41.0269 248° West  Level FlightAware Approximate
Fri 09:09:00 AM 49.6981 -41.1852 248° West  Level FlightAware Approximate
Fri 09:10:00 AM 49.6566 -41.3432 248° West  Level FlightAware Approximate
Fri 09:11:00 AM 49.6150 -41.5009 248° West  Level FlightAware Approximate
Fri 09:12:00 AM 49.5731 -41.6584 248° West  Level FlightAware Approximate
Fri 09:13:00 AM 49.5310 -41.8156 248° West  Level FlightAware Approximate
Fri 09:14:00 AM 49.4887 -41.9725 248° West  Level FlightAware Approximate
Fri 09:15:00 AM 49.4462 -42.1292 247° West  Level FlightAware Approximate
Fri 09:16:00 AM 49.4035 -42.2855 247° West  Level FlightAware Approximate
Fri 09:17:00 AM 49.3605 -42.4416 247° West  Level FlightAware Approximate
Fri 09:18:00 AM 49.3174 -42.5975 247° West  Level FlightAware Approximate
Fri 09:19:00 AM 49.2753 -42.7538 248° West  Level FlightAware Approximate
Fri 09:20:00 AM 49.2330 -42.9100 248° West  Level FlightAware Approximate
Fri 09:21:00 AM 49.1906 -43.0658 247° West  Level FlightAware Approximate
Fri 09:22:00 AM 49.1479 -43.2214 247° West  Level FlightAware Approximate
Fri 09:23:00 AM 49.1050 -43.3768 247° West  Level FlightAware Approximate
Fri 09:24:00 AM 49.0619 -43.5318 247° West  Level FlightAware Approximate
Fri 09:25:00 AM 49.0186 -43.6866 247° West  Level FlightAware Approximate
Fri 09:26:00 AM 48.9751 -43.8411 247° West  Level FlightAware Approximate
Fri 09:27:00 AM 48.9313 -43.9954 247° West  Level FlightAware Approximate
Fri 09:28:00 AM 48.8874 -44.1494 247° West  Level FlightAware Approximate
Fri 09:29:00 AM 48.8433 -44.3031 246° West  Level FlightAware Approximate
Fri 09:30:00 AM 48.7989 -44.4565 246° West  Level FlightAware Approximate
Fri 09:31:00 AM 48.7544 -44.6097 246° West  Level FlightAware Approximate
Fri 09:32:00 AM 48.7096 -44.7626 246° West  Level FlightAware Approximate
Fri 09:33:00 AM 48.6647 -44.9152 246° West  Level FlightAware Approximate
Fri 09:34:00 AM 48.6196 -45.0675 246° West  Level FlightAware Approximate
Fri 09:35:00 AM 48.5742 -45.2196 246° West  Level FlightAware Approximate
Fri 09:36:00 AM 48.5287 -45.3714 246° West  Level FlightAware Approximate
Fri 09:37:00 AM 48.4829 -45.5229 246° West  Level FlightAware Approximate
Fri 09:38:00 AM 48.4370 -45.6742 245° Southwest  Level FlightAware Approximate
Fri 09:39:00 AM 48.3909 -45.8251 245° Southwest  Level FlightAware Approximate
Fri 09:40:00 AM 48.3445 -45.9758 245° Southwest  Level FlightAware Approximate
Fri 09:41:00 AM 48.2980 -46.1263 245° Southwest  Level FlightAware Approximate
Fri 09:42:00 AM 48.2513 -46.2764 245° Southwest  Level FlightAware Approximate
Fri 09:43:00 AM 48.2043 -46.4263 245° Southwest  Level FlightAware Approximate
Fri 09:44:00 AM 48.1572 -46.5759 245° Southwest  Level FlightAware Approximate
Fri 09:45:00 AM 48.1099 -46.7253 245° Southwest  Level FlightAware Approximate
Fri 09:46:00 AM 48.0624 -46.8743 245° Southwest  Level FlightAware Approximate
Fri 09:47:00 AM 48.0147 -47.0231 244° Southwest  Level FlightAware Approximate
Fri 09:48:00 AM 47.9668 -47.1716 244° Southwest  Level FlightAware Approximate
Fri 09:49:00 AM 47.9187 -47.3198 244° Southwest  Level FlightAware Approximate
Fri 09:50:00 AM 47.8705 -47.4678 244° Southwest  Level FlightAware Approximate
Fri 09:50:52 AM 47.2330 -49.4040 244° Southwest 450 518 36,000  Level FlightAware ADS-B
Fri 09:51:00 AM 47.8220 -47.6155 244° Southwest  Level FlightAware Approximate
Fri 09:52:00 AM 47.7733 -47.7629 244° Southwest  Level FlightAware Approximate
Fri 09:52:02 AM 47.1660 -49.5930 243° Southwest 450 518 36,000  Level FlightAware ADS-B
Fri 09:53:12 AM 47.1010 -49.7730 242° Southwest 451 519 36,000  Level FlightAware ADS-B
Fri 09:54:17 AM 47.0370 -49.9510 242° Southwest 453 521 36,000  Level FlightAware ADS-B
Fri 09:54:57 AM 47.0030 -50.0430 242° Southwest 453 521 36,000  Level FlightAware ADS-B
Fri 09:55:37 AM 46.9700 -50.1360 243° Southwest 453 521 36,000  Level FlightAware ADS-B
Fri 09:56:17 AM 46.9360 -50.2280 242° Southwest 453 521 36,000  Level FlightAware ADS-B
Fri 09:56:52 AM 46.9880 -50.3910 295° West 36,000  Level FlightAware ADS-B
Fri 09:57:12 AM 46.9920 -50.4480 276° West 402 463 36,000  Level FlightAware ADS-B
Fri 09:57:57 AM 46.9990 -50.5610 275° West 402 463 36,000  Level FlightAware ADS-B
Fri 09:58:37 AM 47.0040 -50.6540 275° West 402 463 36,000  Level FlightAware ADS-B
Fri 09:59:17 AM 47.0100 -50.7460 275° West 402 463 36,000  Level FlightAware ADS-B
Fri 10:00:07 AM 47.0170 -50.8610 275° West 402 463 36,000  Level FlightAware ADS-B
Fri 10:00:47 AM 47.0220 -50.9540 275° West 402 463 36,000 1,500 Level FlightAware ADS-B
Fri 10:01:27 AM 47.0350 -51.1390 276° West 397 457 38,000 1,412 Climbing FlightAware ADS-B
Fri 10:02:12 AM 47.0420 -51.2620 275° West 396 456 38,000  Level FlightAware ADS-B
Fri 10:02:52 AM 47.0480 -51.3670 275° West 394 453 38,000  Level FlightAware ADS-B
Fri 10:03:32 AM 47.0540 -51.4730 275° West 394 453 38,000  Level FlightAware ADS-B
Fri 10:04:17 AM 47.0610 -51.5980 275° West 395 455 38,000  Level FlightAware ADS-B
Fri 10:04:57 AM 47.0670 -51.7020 275° West 395 455 38,000  Level FlightAware ADS-B
Fri 10:05:42 AM 47.0740 -51.8210 275° West 396 456 38,000  Level FlightAware ADS-B
Fri 10:06:22 AM 47.0790 -51.9280 274° West 397 457 38,000  Level FlightAware ADS-B
Fri 10:07:02 AM 47.0850 -52.0330 275° West 398 458 38,000  Level FlightAware ADS-B
Fri 10:07:47 AM 47.0910 -52.1580 274° West 398 458 38,000  Level FlightAware ADS-B
Fri 10:08:27 AM 47.0960 -52.2640 274° West 398 458 38,000  Level FlightAware ADS-B
Fri 10:09:12 AM 47.1020 -52.3830 274° West 398 458 38,000  Level FlightAware ADS-B
Fri 10:09:52 AM 47.1080 -52.4920 275° West 397 457 38,000  Level FlightAware ADS-B
Fri 10:10:37 AM 47.1130 -52.6160 273° West 396 456 38,000  Level FlightAware ADS-B
Fri 10:11:17 AM 47.1180 -52.7210 274° West 396 456 38,000  Level FlightAware ADS-B
Fri 10:11:57 AM 47.1230 -52.8290 274° West 396 456 38,000  Level FlightAware ADS-B
Fri 10:12:42 AM 47.1280 -52.9480 274° West 397 457 38,000  Level FlightAware ADS-B
Fri 10:13:22 AM 47.1330 -53.0540 274° West 397 457 38,000  Level FlightAware ADS-B
Fri 10:14:07 AM 47.1380 -53.1730 274° West 397 457 38,000  Level FlightAware ADS-B
Fri 10:14:47 AM 47.1430 -53.2840 274° West 398 458 38,000  Level FlightAware ADS-B
Fri 10:15:27 AM 47.1470 -53.3920 273° West 398 458 38,000  Level FlightAware ADS-B
Fri 10:16:07 AM 47.1510 -53.4980 273° West 399 459 38,000  Level FlightAware ADS-B
Fri 10:16:52 AM 47.1560 -53.6200 273° West 399 459 38,000  Level FlightAware ADS-B
Fri 10:17:37 AM 47.1600 -53.7410 273° West 398 458 38,000  Level FlightAware ADS-B
Fri 10:18:17 AM 47.1640 -53.8490 273° West 396 456 38,000  Level FlightAware ADS-B
Fri 10:19:02 AM 47.1680 -53.9720 273° West 396 456 38,000  Level FlightAware ADS-B
Fri 10:19:42 AM 47.1720 -54.0810 273° West 396 456 38,000  Level FlightAware ADS-B
Fri 10:20:27 AM 47.1760 -54.1990 273° West 397 457 38,000  Level FlightAware ADS-B
Fri 10:21:07 AM 47.1800 -54.3070 273° West 397 457 38,000  Level FlightAware ADS-B
Fri 10:21:47 AM 47.1830 -54.4160 272° West 397 457 38,000  Level FlightAware ADS-B
Fri 10:22:32 AM 47.1870 -54.5310 273° West 396 456 38,000  Level FlightAware ADS-B
Fri 10:23:12 AM 47.1900 -54.6350 272° West 396 456 38,000  Level FlightAware ADS-B
Fri 10:23:47 AM 47.1920 -54.7290 272° West 397 457 38,000  Level FlightAware ADS-B
Fri 10:24:17 AM 47.1950 -54.8150 273° West 398 458 38,000  Level FlightAware ADS-B
Fri 10:24:52 AM 47.1970 -54.9120 272° West 399 459 38,000  Level FlightAware ADS-B
Fri 10:25:37 AM 47.2000 -55.0330 272° West 401 461 38,000  Level FlightAware ADS-B
Fri 10:26:37 AM 47.2040 -55.1900 272° West 403 464 38,000  Level FlightAware ADS-B
Fri 10:27:32 AM 47.2060 -55.3250 271° West 404 465 38,000  Level FlightAware ADS-B
Fri 10:28:12 AM 47.2060 -55.4180 270° West 404 465 38,000  Level FlightAware ADS-B
Fri 10:28:52 AM 47.2060 -55.5120 270° West 404 465 38,000  Level FlightAware ADS-B
Fri 10:29:32 AM 47.2060 -55.6050 270° West 404 465 38,000  Level FlightAware ADS-B
Fri 10:30:12 AM 47.2170 -55.7870 275° West 406 467 38,000  Level FlightAware ADS-B
Fri 10:30:57 AM 47.2180 -55.8990 271° West 406 467 38,000  Level FlightAware ADS-B
Fri 10:31:37 AM 47.2200 -55.9930 272° West 406 467 38,000  Level FlightAware ADS-B
Fri 10:32:27 AM 47.2210 -56.1110 271° West 406 467 38,000  Level FlightAware ADS-B
Fri 10:33:07 AM 47.2220 -56.2050 271° West 406 467 38,000  Level FlightAware ADS-B
Fri 10:33:47 AM 47.2230 -56.2990 271° West 406 467 38,000  Level FlightAware ADS-B
Fri 10:34:27 AM 47.2240 -56.3930 271° West 406 467 38,000  Level FlightAware ADS-B
Fri 10:35:07 AM 47.2250 -56.4870 271° West 406 467 38,000  Level FlightAware ADS-B
Fri 10:35:57 AM 47.2270 -56.6050 271° West 406 467 38,000  Level FlightAware ADS-B
Fri 10:36:37 AM 47.2280 -56.6990 271° West 406 467 38,000  Level FlightAware ADS-B
Fri 10:37:17 AM 47.2290 -56.7930 271° West 406 467 38,000  Level FlightAware ADS-B
Fri 10:37:57 AM 47.2300 -56.8870 271° West 406 467 38,000  Level FlightAware ADS-B
Fri 10:38:37 AM 47.2310 -56.9810 271° West 406 467 38,000  Level FlightAware ADS-B
Fri 10:39:27 AM 47.2330 -57.0980 271° West 406 467 38,000  Level FlightAware ADS-B
Fri 10:40:07 AM 47.2340 -57.1920 271° West 406 467 38,000  Level FlightAware ADS-B
Fri 10:42:52 AM 47.2370 -57.8940 271° West 417 480 38,000  Level FlightAware ADS-B
Fri 10:43:37 AM 47.2370 -58.0310 270° West 416 479 38,000  Level FlightAware ADS-B
Fri 10:44:17 AM 47.2370 -58.1410 270° West 417 480 38,000  Level FlightAware ADS-B
Fri 10:45:02 AM 47.2370 -58.2670 270° West 417 480 38,000  Level FlightAware ADS-B
Fri 10:45:42 AM 47.2370 -58.3830 270° West 417 480 38,000  Level FlightAware ADS-B
Fri 10:46:27 AM 47.2360 -58.5060 269° West 418 481 38,000  Level FlightAware ADS-B
Fri 10:47:07 AM 47.2350 -58.6180 269° West 418 481 38,000  Level FlightAware ADS-B
Fri 10:47:52 AM 47.2350 -58.7520 270° West 419 482 38,000  Level FlightAware ADS-B
Fri 10:48:32 AM 47.2340 -58.8670 269° West 418 481 38,000  Level FlightAware ADS-B
Fri 10:49:12 AM 47.2330 -58.9800 269° West 417 480 38,000  Level FlightAware ADS-B
Fri 10:49:57 AM 47.2310 -59.1060 269° West 416 479 38,000  Level FlightAware ADS-B
Fri 10:50:37 AM 47.2300 -59.2190 269° West 416 479 38,000  Level FlightAware ADS-B
Fri 10:51:22 AM 47.2290 -59.3420 269° West 417 480 38,000  Level FlightAware ADS-B
Fri 10:52:02 AM 47.2270 -59.4580 269° West 418 481 38,000  Level FlightAware ADS-B
Fri 10:52:42 AM 47.2260 -59.5690 269° West 418 481 38,000  Level FlightAware ADS-B
Fri 10:53:22 AM 47.2240 -59.6830 269° West 417 480 38,000  Level FlightAware ADS-B
Fri 10:54:07 AM 47.2220 -59.8140 269° West 417 480 38,000  Level FlightAware ADS-B
Fri 10:54:47 AM 47.2200 -59.9270 269° West 417 480 38,000  Level FlightAware ADS-B
Fri 10:55:32 AM 47.2180 -60.0490 269° West 418 481 38,000  Level FlightAware ADS-B
Fri 10:56:12 AM 47.2160 -60.1630 269° West 417 480 38,000  Level FlightAware ADS-B
Fri 10:56:52 AM 47.2140 -60.2760 269° West 418 481 38,000  Level FlightAware ADS-B
Fri 10:57:37 AM 47.2110 -60.4080 268° West 420 483 38,000  Level FlightAware ADS-B
Fri 10:58:32 AM 47.2070 -60.5600 268° West 421 484 38,000  Level FlightAware ADS-B
Fri 10:59:17 AM 47.2030 -60.6750 267° West 421 484 38,000  Level FlightAware ADS-B
Fri 10:59:57 AM 47.2000 -60.7720 267° West 421 484 38,000  Level FlightAware ADS-B
Fri 11:00:37 AM 47.1990 -60.9220 269° West 422 486 38,000  Level FlightAware ADS-B
Fri 11:01:22 AM 47.1950 -61.0460 267° West 421 484 38,000  Level FlightAware ADS-B
Fri 11:02:02 AM 47.1920 -61.1600 268° West 421 484 38,000  Level FlightAware ADS-B
Fri 11:02:47 AM 47.1880 -61.2780 267° West 421 484 38,000  Level FlightAware ADS-B
Fri 11:03:27 AM 47.1850 -61.4040 268° West 422 486 38,000  Level FlightAware ADS-B
Fri 11:04:12 AM 47.1810 -61.5230 267° West 420 483 38,000  Level FlightAware ADS-B
Fri 11:04:47 AM 47.1780 -61.6170 267° West 420 483 38,000  Level FlightAware ADS-B
Fri 11:05:37 AM 47.1740 -61.7390 267° West 420 483 38,000  Level FlightAware ADS-B
Fri 11:06:17 AM 47.1700 -61.8360 267° West 420 483 38,000  Level FlightAware ADS-B
Fri 11:06:57 AM 47.1670 -61.9330 267° West 420 483 38,000  Level FlightAware ADS-B
Fri 11:07:37 AM 47.1630 -62.0300 267° West 420 483 38,000  Level FlightAware ADS-B
Fri 11:08:17 AM 47.1600 -62.1270 267° West 420 483 38,000  Level FlightAware ADS-B
Fri 11:08:57 AM 47.1560 -62.2240 267° West 420 483 38,000  Level FlightAware ADS-B
Fri 11:09:47 AM 47.1520 -62.3450 267° West 420 483 38,000  Level FlightAware ADS-B
Fri 11:10:27 AM 47.1480 -62.4420 267° West 420 483 38,000  Level FlightAware ADS-B
Fri 11:11:07 AM 47.1450 -62.5390 267° West 420 483 38,000  Level FlightAware ADS-B
Fri 11:11:47 AM 47.1420 -62.6360 267° West 420 483 38,000  Level FlightAware ADS-B
Fri 11:12:27 AM 47.1380 -62.7330 267° West 420 483 38,000  Level FlightAware ADS-B
Fri 11:13:17 AM 47.1340 -62.8540 267° West 420 483 38,000  Level FlightAware ADS-B
Fri 11:13:57 AM 47.1300 -62.9510 267° West 420 483 38,000  Level FlightAware ADS-B
Fri 11:14:13 AM 47.1000 -63.2500 267° West 420 483 38,000  Level Gander Center
Fri 11:14:59 AM 47.1000 -63.3667 270° West 420 483 38,000  Level Moncton Center
Fri 11:15:59 AM 47.1000 -63.5333 270° West 420 483 38,000  Level Moncton Center
Fri 11:16:59 AM 47.0833 -63.7167 262° West 430 495 38,000  Level Moncton Center
Fri 11:17:59 AM 47.0667 -63.8833 262° West 430 495 38,000  Level Moncton Center
Fri 11:18:59 AM 47.0667 -64.0500 270° West 430 495 38,000 450 Level Moncton Center
Fri 11:19:59 AM 47.0500 -64.2333 262° West 430 495 38,900 500 Climbing Moncton Center
Fri 11:20:59 AM 47.0500 -64.4167 270° West 430 495 39,000 50 Climbing Moncton Center
Fri 11:21:59 AM 47.0333 -64.5667 261° West 420 483 39,000  Level Moncton Center
Fri 11:22:59 AM 47.0167 -64.7667 263° West 420 483 39,000  Level Moncton Center
Fri 11:23:59 AM 47.0167 -64.9167 270° West 420 483 39,000  Level Moncton Center
Fri 11:24:59 AM 47.0000 -65.1167 263° West 420 483 39,000  Level Moncton Center
Fri 11:25:59 AM 47.0000 -65.2500 270° West 420 483 39,000  Level Moncton Center
Fri 11:26:59 AM 46.9833 -65.4500 263° West 420 483 39,000  Level Moncton Center
Fri 11:27:59 AM 46.9667 -65.6000 261° West 420 483 39,000  Level Moncton Center
Fri 11:28:59 AM 46.9500 -65.8000 263° West 420 483 39,000  Level Moncton Center
Fri 11:29:59 AM 46.9333 -65.9333 260° West 420 483 39,000  Level Moncton Center
Fri 11:30:59 AM 46.9333 -66.1167 270° West 420 483 39,000  Level Moncton Center
Fri 11:31:59 AM 46.9167 -66.2833 262° West 410 472 39,000  Level Moncton Center
Fri 11:32:59 AM 46.9167 -66.4500 270° West 410 472 39,000  Level Moncton Center
Fri 11:33:59 AM 46.8833 -66.6333 255° West 410 472 39,000  Level Moncton Center
Fri 11:34:59 AM 46.8833 -66.8000 270° West 410 472 39,000  Level Moncton Center
Fri 11:35:59 AM 46.8667 -66.9667 262° West 420 483 39,000 -70 Level Moncton Center
Fri 11:36:25 AM 46.8767 -67.0136 287° West 428 493 38,900  Descending Boston Center
Fri 11:36:59 AM 46.8500 -67.1333 252° West 420 483 39,000 64 Climbing Moncton Center
Fri 11:37:59 AM 46.8167 -67.3000 254° West 420 483 39,000 151 Level Moncton Center
Fri 11:43:37 AM 46.6030 -68.2000 254° West 421 484 40,000 159 Climbing FlightAware ADS-B
Fri 11:44:17 AM 46.5770 -68.3050 250° West 420 483 40,000  Level FlightAware ADS-B
Fri 11:44:57 AM 46.5520 -68.4110 251° West 417 480 40,000  Level FlightAware ADS-B
Fri 11:45:26 AM 46.5392 -68.4739 251° West 426 490 40,000  Level Boston Center
Fri 11:46:26 AM 46.5006 -68.6303 250° West 421 484 40,000  Level Boston Center
Fri 11:47:24 AM 46.4578 -68.7900 249° West 421 484 40,000  Level Boston Center
Fri 11:48:25 AM 46.4208 -68.9431 251° West 415 478 40,000  Level Boston Center
Fri 11:49:26 AM 46.3819 -69.1047 251° West 415 478 40,000 -64 Level Boston Center
Fri 11:49:59 AM 46.3500 -69.2000 244° Southwest 410 472 39,900  Descending Moncton Center
Fri 11:50:26 AM 46.3383 -69.2606 254° West 415 478 40,000  Climbing Boston Center
Fri 11:51:27 AM 46.3008 -69.4189 251° West 415 478 39,900  Descending Boston Center
Fri 11:52:27 AM 46.2611 -69.5742 250° West 415 478 40,000  Climbing Boston Center
Fri 11:53:25 AM 46.2211 -69.7322 250° West 415 478 39,900 -51 Descending Boston Center
Fri 11:54:24 AM 46.1786 -69.8842 248° West 415 478 39,900 50 Level Boston Center
Fri 11:55:25 AM 46.1403 -70.0356 250° West 415 478 40,000  Climbing Boston Center
Fri 11:56:25 AM 46.0975 -70.1900 248° West 415 478 39,900  Descending Boston Center
Fri 11:56:59 AM 46.0500 -70.3000 238° Southwest 410 472 40,000 107 Climbing Moncton Center
Fri 11:57:21 AM 46.0500 -70.3333 270° West 410 472 40,000  Level Montreal Center
Fri 11:57:59 AM 46.0167 -70.4500 248° West 410 472 40,000  Level Moncton Center
Fri 11:58:21 AM 46.0000 -70.4833 234° Southwest 410 472 40,000  Level Montreal Center
Fri 11:59:21 AM 45.9667 -70.6333 252° West 420 483 40,000  Level Montreal Center
Fri 12:00:21 PM 45.9167 -70.7833 244° Southwest 410 472 40,000  Level Montreal Center
Fri 12:01:21 PM 45.9000 -70.9500 262° West 420 483 40,000 -950 Level Montreal Center
Fri 12:02:21 PM 45.8833 -71.1333 263° West 420 483 38,100 -2,450 Descending Montreal Center
Fri 12:03:21 PM 45.8833 -71.3000 270° West 430 495 35,100 -2,850 Descending Montreal Center
Fri 12:04:21 PM 45.8500 -71.4667 254° West 430 495 32,400 -2,550 Descending Montreal Center
Fri 12:05:21 PM 45.8333 -71.6333 262° West 420 483 30,000 -1,800 Descending Montreal Center
Fri 12:06:21 PM 45.8333 -71.8000 270° West 400 460 28,800 -1,550 Descending Montreal Center
Fri 12:07:21 PM 45.8167 -71.9500 261° West 390 449 26,900 -2,250 Descending Montreal Center
Fri 12:08:21 PM 45.8000 -72.1000 261° West 370 426 24,300 -2,058 Descending Montreal Center
Fri 12:15:22 PM 45.7100 -73.0790 261° West 271 312 10,400 -1,874 Descending FlightAware ADS-B
Fri 12:16:02 PM 45.6980 -73.1440 255° West 249 287 9,900 -923 Descending FlightAware ADS-B
Fri 12:16:27 PM 45.6900 -73.1850 254° West 246 283 9,400 -1,200 Descending FlightAware ADS-B
Fri 12:16:57 PM 45.6820 -73.2330 257° West 241 277 8,800 -1,333 Descending FlightAware ADS-B
Fri 12:17:12 PM 45.6780 -73.2550 255° West 240 276 8,400 -1,600 Descending FlightAware ADS-B
Fri 12:17:42 PM 45.6710 -73.2990 257° West 235 270 7,600 -1,636 Descending FlightAware ADS-B
Fri 12:18:07 PM 45.6640 -73.3390 256° West 234 269 6,900 -1,745 Descending FlightAware ADS-B
Fri 12:18:37 PM 45.6560 -73.3840 256° West 235 270 6,000 -1,745 Descending FlightAware ADS-B
Fri 12:19:02 PM 45.6490 -73.4210 255° West 233 268 5,300 -1,527 Descending FlightAware ADS-B
Fri 12:19:32 PM 45.6410 -73.4650 255° West 227 261 4,600 -1,200 Descending FlightAware ADS-B
Fri 12:19:47 PM 45.6370 -73.4870 255° West 219 252 4,400 -450 Descending FlightAware ADS-B
Fri 12:20:12 PM 45.6270 -73.5160 244° Southwest 193 222 4,300 -436 Descending FlightAware ADS-B
Fri 12:20:42 PM 45.6100 -73.5420 227° Southwest 172 198 4,000 -764 Descending FlightAware ADS-B
Fri 12:21:07 PM 45.5950 -73.5610 222° Southwest 164 189 3,600 -873 Descending FlightAware ADS-B
Fri 12:21:37 PM 45.5790 -73.5820 223° Southwest 162 186 3,200 -900 Descending FlightAware ADS-B
Fri 12:22:07 PM 45.5610 -73.6050 222° Southwest 164 189 2,700 -873 Descending FlightAware ADS-B
Fri 12:22:32 PM 45.5490 -73.6210 223° Southwest 147 169 2,400 -764 Descending FlightAware ADS-B
Fri 12:23:02 PM 45.5340 -73.6410 223° Southwest 142 163 2,000 -800 Descending FlightAware ADS-B
Fri 12:23:32 PM 45.5200 -73.6600 224° Southwest 142 163 1,600 -764 Descending FlightAware ADS-B
Fri 12:23:57 PM 45.5070 -73.6760 221° Southwest 145 167 1,300 -600 Descending FlightAware ADS-B
Fri 12:24:02 PM 45.5060 -73.6790 245° Southwest 145 167 1,300 -667 Level FlightAware ADS-B
Fri 12:24:42 PM 45.4870 -73.7020 220° Southwest 148 170 800 -750 Descending FlightAware ADS-B

Login

Don't have an account? Register now (free) for customized features, flight alerts, and more!